createdAt,value
2018-01-17T00:00:06.262Z,5.75
2018-01-17T00:00:30.043Z,5.75
2018-01-17T00:00:53.795Z,5.74
2018-01-17T00:01:17.570Z,5.75
2018-01-17T00:01:41.616Z,5.75
2018-01-17T00:02:05.388Z,5.75
2018-01-17T00:02:28.849Z,5.75
2018-01-17T00:02:52.612Z,5.76
2018-01-17T00:03:16.348Z,5.76
2018-01-17T00:03:40.360Z,5.75
2018-01-17T00:04:04.056Z,5.75
2018-01-17T00:04:27.822Z,5.75
2018-01-17T00:04:51.552Z,5.76
2018-01-17T00:05:15.283Z,5.76
2018-01-17T00:05:39.038Z,5.76
2018-01-17T00:06:02.480Z,5.75
2018-01-17T00:06:26.240Z,5.75
2018-01-17T00:06:50.008Z,5.74
2018-01-17T00:07:14.033Z,5.74
2018-01-17T00:07:38.139Z,5.74
2018-01-17T00:08:01.959Z,5.74
2018-01-17T00:08:26.007Z,5.74
2018-01-17T00:08:49.814Z,5.74
2018-01-17T00:09:13.841Z,5.73
2018-01-17T00:09:37.823Z,5.73
2018-01-17T00:10:01.853Z,5.73
2018-01-17T00:10:25.644Z,5.72
2018-01-17T00:10:49.084Z,5.73
2018-01-17T00:11:12.826Z,5.72
2018-01-17T00:11:36.566Z,5.72
2018-01-17T00:12:00.614Z,5.72
2018-01-17T00:12:24.834Z,5.72
2018-01-17T00:12:48.360Z,5.72
2018-01-17T00:13:12.148Z,5.72
2018-01-17T00:13:35.304Z,5.72
2018-01-17T00:13:59.045Z,5.72
2018-01-17T00:14:22.832Z,5.72
2018-01-17T00:14:47.172Z,5.73
2018-01-17T00:15:10.928Z,5.74
2018-01-17T00:15:34.359Z,5.74
2018-01-17T00:15:58.423Z,5.74
2018-01-17T00:16:21.792Z,5.75
2018-01-17T00:16:45.542Z,5.76
2018-01-17T00:17:09.275Z,5.77
2018-01-17T00:17:33.033Z,5.77
2018-01-17T00:17:57.031Z,5.78
2018-01-17T00:18:21.064Z,5.80
2018-01-17T00:18:45.089Z,5.82
2018-01-17T00:19:09.195Z,5.83
2018-01-17T00:19:32.999Z,5.84
2018-01-17T00:19:57.063Z,5.86
2018-01-17T00:20:20.800Z,5.87
2018-01-17T00:20:44.243Z,5.88
2018-01-17T00:21:07.976Z,5.90
2018-01-17T00:21:31.757Z,5.91
2018-01-17T00:21:55.820Z,5.92
2018-01-17T00:22:19.908Z,5.93
2018-01-17T00:22:43.340Z,5.94
2018-01-17T00:23:07.132Z,5.95
2018-01-17T00:23:30.904Z,5.97
2018-01-17T00:23:54.652Z,5.98
2018-01-17T00:24:18.656Z,6.00
2018-01-17T00:24:42.408Z,6.01
2018-01-17T00:25:06.192Z,6.02
2018-01-17T00:25:29.937Z,6.02
2018-01-17T00:25:53.688Z,6.04
2018-01-17T00:26:18.315Z,6.05
2018-01-17T00:26:41.902Z,6.06
2018-01-17T00:27:05.622Z,6.07
2018-01-17T00:27:29.358Z,6.08
2018-01-17T00:27:52.839Z,6.08
2018-01-17T00:28:16.668Z,6.09
2018-01-17T00:28:40.448Z,6.09
2018-01-17T00:29:03.857Z,6.10
2018-01-17T00:29:27.588Z,6.10
2018-01-17T00:29:51.315Z,6.10
2018-01-17T00:30:15.102Z,6.10
2018-01-17T00:30:39.119Z,6.10
2018-01-17T00:31:02.884Z,6.11
2018-01-17T00:31:26.337Z,6.11
2018-01-17T00:31:50.065Z,6.11
2018-01-17T00:32:13.807Z,6.11
2018-01-17T00:32:37.844Z,6.11
2018-01-17T00:33:01.923Z,6.10
2018-01-17T00:33:25.692Z,6.09
2018-01-17T00:33:49.151Z,6.09
2018-01-17T00:34:12.921Z,6.08
2018-01-17T00:34:36.728Z,6.07
2018-01-17T00:35:00.765Z,6.06
2018-01-17T00:35:24.564Z,6.06
2018-01-17T00:35:48.592Z,6.04
2018-01-17T00:36:12.616Z,6.03
2018-01-17T00:36:37.042Z,6.03
2018-01-17T00:37:00.536Z,6.02
2018-01-17T00:37:24.497Z,6.00
2018-01-17T00:37:48.532Z,6.00
2018-01-17T00:38:12.311Z,5.99
2018-01-17T00:38:36.323Z,5.98
2018-01-17T00:39:00.339Z,5.98
2018-01-17T00:39:24.373Z,5.98
2018-01-17T00:39:48.167Z,5.97
2018-01-17T00:40:11.612Z,5.96
2018-01-17T00:40:35.372Z,5.96
2018-01-17T00:40:59.165Z,5.96
2018-01-17T00:41:23.093Z,5.95
2018-01-17T00:41:47.124Z,5.95
2018-01-17T00:42:10.630Z,5.95
2018-01-17T00:42:34.364Z,5.96
2018-01-17T00:42:58.145Z,5.96
2018-01-17T00:43:21.909Z,5.96
2018-01-17T00:43:45.935Z,5.97
2018-01-17T00:44:09.975Z,5.96
2018-01-17T00:44:33.741Z,5.97
2018-01-17T00:44:57.182Z,5.97
2018-01-17T00:45:20.906Z,5.98
2018-01-17T00:45:45.477Z,5.98
2018-01-17T00:46:08.954Z,5.98
2018-01-17T00:46:32.735Z,5.98
2018-01-17T00:46:56.739Z,5.99
2018-01-17T00:47:20.503Z,5.99
2018-01-17T00:47:43.951Z,6.00
2018-01-17T00:48:07.708Z,5.99
2018-01-17T00:48:31.471Z,6.00
2018-01-17T00:48:54.921Z,6.01
2018-01-17T00:49:18.690Z,6.00
2018-01-17T00:49:42.422Z,6.00
2018-01-17T00:50:06.439Z,6.01
2018-01-17T00:50:30.486Z,6.02
2018-01-17T00:50:54.298Z,6.01
2018-01-17T00:51:18.347Z,6.02
2018-01-17T00:51:42.383Z,6.02
2018-01-17T00:52:06.125Z,6.02
2018-01-17T00:52:29.426Z,6.04
2018-01-17T00:52:53.173Z,6.03
2018-01-17T00:53:17.202Z,6.05
2018-01-17T00:53:40.650Z,6.05
2018-01-17T00:54:04.379Z,6.05
2018-01-17T00:54:28.211Z,6.05
2018-01-17T00:54:51.952Z,6.06
2018-01-17T00:55:16.009Z,6.06
2018-01-17T00:55:40.061Z,6.06
2018-01-17T00:56:03.835Z,6.08
2018-01-17T00:56:27.352Z,6.08
2018-01-17T00:56:51.193Z,6.08
2018-01-17T00:57:14.975Z,6.08
2018-01-17T00:57:38.723Z,6.09
2018-01-17T00:58:02.240Z,6.10
2018-01-17T00:58:25.976Z,6.10
2018-01-17T00:58:49.716Z,6.12
2018-01-17T00:59:13.766Z,6.12
2018-01-17T00:59:37.562Z,6.13
2018-01-17T01:00:01.624Z,6.14
2018-01-17T01:00:25.649Z,6.15
2018-01-17T01:00:49.447Z,6.15
2018-01-17T01:01:13.591Z,6.17
2018-01-17T01:01:37.402Z,6.17
2018-01-17T01:02:00.844Z,6.18
2018-01-17T01:02:24.986Z,6.19
2018-01-17T01:02:48.815Z,6.20
2018-01-17T01:03:12.637Z,6.20
2018-01-17T01:03:36.179Z,6.21
2018-01-17T01:03:59.633Z,6.21
2018-01-17T01:04:23.363Z,6.22
2018-01-17T01:04:47.178Z,6.22
2018-01-17T01:05:11.188Z,6.23
2018-01-17T01:05:35.248Z,6.24
2018-01-17T01:05:59.036Z,6.25
2018-01-17T01:06:23.077Z,6.25
2018-01-17T01:06:47.106Z,6.26
2018-01-17T01:07:10.895Z,6.26
2018-01-17T01:07:34.940Z,6.26
2018-01-17T01:07:58.977Z,6.27
2018-01-17T01:08:22.723Z,6.28
2018-01-17T01:08:46.457Z,6.28
2018-01-17T01:09:10.203Z,6.29
2018-01-17T01:09:34.004Z,6.29
2018-01-17T01:09:57.760Z,6.30
2018-01-17T01:10:21.792Z,6.31
2018-01-17T01:10:45.547Z,6.31
2018-01-17T01:11:09.011Z,6.31
2018-01-17T01:11:33.469Z,6.32
2018-01-17T01:11:57.263Z,6.32
2018-01-17T01:12:20.984Z,6.33
2018-01-17T01:12:44.761Z,6.33
2018-01-17T01:13:08.514Z,6.33
2018-01-17T01:13:32.523Z,6.33
2018-01-17T01:13:56.544Z,6.33
2018-01-17T01:14:20.285Z,6.34
2018-01-17T01:14:44.076Z,6.35
2018-01-17T01:15:07.569Z,6.35
2018-01-17T01:15:31.294Z,6.35
2018-01-17T01:15:55.365Z,6.36
2018-01-17T01:16:19.144Z,6.36
2018-01-17T01:16:42.671Z,6.37
2018-01-17T01:17:06.417Z,6.37
2018-01-17T01:17:30.144Z,6.37
2018-01-17T01:17:54.235Z,6.37
2018-01-17T01:18:17.983Z,6.37
2018-01-17T01:18:41.430Z,6.38
2018-01-17T01:19:05.279Z,6.38
2018-01-17T01:19:29.088Z,6.38
2018-01-17T01:19:52.433Z,6.38
2018-01-17T01:20:16.175Z,6.38
2018-01-17T01:20:39.955Z,6.38
2018-01-17T01:21:04.012Z,6.38
2018-01-17T01:21:27.811Z,6.39
2018-01-17T01:21:51.888Z,6.38
2018-01-17T01:22:15.895Z,6.38
2018-01-17T01:22:39.710Z,6.38
2018-01-17T01:23:03.740Z,6.38
2018-01-17T01:23:27.869Z,6.38
2018-01-17T01:23:51.596Z,6.38
2018-01-17T01:24:15.055Z,6.39
2018-01-17T01:24:38.835Z,6.38
2018-01-17T01:25:02.602Z,6.38
2018-01-17T01:25:26.642Z,6.38
2018-01-17T01:25:50.112Z,6.38
2018-01-17T01:26:13.852Z,6.38
2018-01-17T01:26:37.615Z,6.37
2018-01-17T01:27:01.403Z,6.37
2018-01-17T01:27:25.448Z,6.37
2018-01-17T01:27:49.618Z,6.37
2018-01-17T01:28:13.423Z,6.36
2018-01-17T01:28:37.164Z,6.36
2018-01-17T01:29:00.891Z,6.35
2018-01-17T01:29:24.624Z,6.35
2018-01-17T01:29:48.349Z,6.35
2018-01-17T01:30:12.090Z,6.35
2018-01-17T01:30:35.566Z,6.35
2018-01-17T01:30:59.333Z,6.35
2018-01-17T01:31:23.110Z,6.35
2018-01-17T01:31:47.162Z,6.35
2018-01-17T01:32:10.934Z,6.35
2018-01-17T01:32:34.781Z,6.36
2018-01-17T01:32:58.513Z,6.36
2018-01-17T01:33:22.343Z,6.37
2018-01-17T01:33:46.140Z,6.37
2018-01-17T01:34:09.880Z,6.37
2018-01-17T01:34:33.903Z,6.36
2018-01-17T01:34:59.120Z,6.37
2018-01-17T01:35:22.595Z,6.37
2018-01-17T01:35:46.328Z,6.37
2018-01-17T01:36:10.115Z,6.37
2018-01-17T01:36:33.888Z,6.37
2018-01-17T01:36:57.623Z,6.37
2018-01-17T01:37:21.651Z,6.37
2018-01-17T01:37:45.434Z,6.37
2018-01-17T01:38:08.531Z,6.37
2018-01-17T01:38:32.574Z,6.37
2018-01-17T01:38:56.326Z,6.37
2018-01-17T01:39:19.823Z,6.37
2018-01-17T01:39:43.612Z,6.37
2018-01-17T01:40:07.363Z,6.37
2018-01-17T01:40:31.396Z,6.37
2018-01-17T01:40:54.879Z,6.37
2018-01-17T01:41:18.636Z,6.37
2018-01-17T01:41:42.364Z,6.37
2018-01-17T01:42:06.170Z,6.38
2018-01-17T01:42:30.218Z,6.37
2018-01-17T01:42:54.231Z,6.38
2018-01-17T01:43:17.986Z,6.39
2018-01-17T01:43:41.503Z,6.39
2018-01-17T01:44:06.217Z,6.39
2018-01-17T01:44:29.975Z,6.39
2018-01-17T01:44:54.037Z,6.40
2018-01-17T01:45:17.506Z,6.40
2018-01-17T01:45:41.252Z,6.39
2018-01-17T01:46:05.004Z,6.41
2018-01-17T01:46:28.832Z,6.40
2018-01-17T01:46:52.878Z,6.41
2018-01-17T01:47:16.902Z,6.41
2018-01-17T01:47:40.701Z,6.41
2018-01-17T01:48:04.145Z,6.41
2018-01-17T01:48:27.876Z,6.41
2018-01-17T01:49:01.744Z,6.41
2018-01-17T01:49:25.191Z,6.41
2018-01-17T01:49:49.543Z,6.42
2018-01-17T01:50:13.030Z,6.43
2018-01-17T01:50:36.763Z,6.42
2018-01-17T01:51:00.575Z,6.42
2018-01-17T01:51:25.488Z,6.43
2018-01-17T01:51:48.949Z,6.43
2018-01-17T01:52:12.713Z,6.43
2018-01-17T01:52:36.464Z,6.44
2018-01-17T01:53:00.519Z,6.44
2018-01-17T01:53:24.250Z,6.44
2018-01-17T01:53:47.785Z,6.44
2018-01-17T01:54:12.136Z,6.45
2018-01-17T01:54:35.953Z,6.45
2018-01-17T01:54:59.695Z,6.45
2018-01-17T01:55:23.440Z,6.45
2018-01-17T01:55:47.171Z,6.44
2018-01-17T01:56:11.258Z,6.43
2018-01-17T01:56:35.012Z,6.43
2018-01-17T01:56:58.135Z,6.43
2018-01-17T01:57:21.841Z,6.42
2018-01-17T01:57:45.592Z,6.42
2018-01-17T01:58:09.369Z,6.42
2018-01-17T01:58:33.087Z,6.42
2018-01-17T01:58:56.852Z,6.42
2018-01-17T01:59:20.878Z,6.41
2018-01-17T01:59:44.897Z,6.40
2018-01-17T02:00:08.264Z,6.40
2018-01-17T02:00:32.023Z,6.39
2018-01-17T02:00:55.780Z,6.40
2018-01-17T02:01:19.293Z,6.40
2018-01-17T02:01:43.125Z,6.40
2018-01-17T02:02:06.904Z,6.39
2018-01-17T02:02:30.657Z,6.40
2018-01-17T02:02:54.663Z,6.40
2018-01-17T02:03:18.718Z,6.40
2018-01-17T02:03:42.460Z,6.40
2018-01-17T02:04:05.892Z,6.39
2018-01-17T02:04:29.634Z,6.39
2018-01-17T02:04:53.377Z,6.39
2018-01-17T02:05:16.900Z,6.40
2018-01-17T02:05:40.633Z,6.40
2018-01-17T02:06:04.360Z,6.40
2018-01-17T02:06:28.440Z,6.40
2018-01-17T02:06:52.361Z,6.40
2018-01-17T02:07:16.367Z,6.40
2018-01-17T02:07:40.118Z,6.41
2018-01-17T02:08:03.908Z,6.41
2018-01-17T02:08:27.657Z,6.41
2018-01-17T02:08:51.452Z,6.41
2018-01-17T02:09:16.088Z,6.42
2018-01-17T02:09:39.519Z,6.42
2018-01-17T02:10:03.316Z,6.42
2018-01-17T02:10:27.099Z,6.42
2018-01-17T02:10:50.830Z,6.43
2018-01-17T02:11:14.311Z,6.43
2018-01-17T02:11:38.045Z,6.43
2018-01-17T02:12:01.797Z,6.43
2018-01-17T02:12:25.847Z,6.43
2018-01-17T02:12:49.501Z,6.43
2018-01-17T02:13:13.236Z,6.42
2018-01-17T02:13:37.030Z,6.42
2018-01-17T02:14:00.753Z,6.40
2018-01-17T02:14:24.763Z,6.39
2018-01-17T02:14:48.496Z,6.38
2018-01-17T02:15:11.955Z,6.36
2018-01-17T02:15:35.678Z,6.34
2018-01-17T02:15:59.412Z,6.32
2018-01-17T02:16:23.201Z,6.29
2018-01-17T02:16:46.929Z,6.28
2018-01-17T02:17:10.711Z,6.25
2018-01-17T02:17:34.448Z,6.23
2018-01-17T02:17:58.478Z,6.21
2018-01-17T02:18:21.972Z,6.19
2018-01-17T02:18:45.724Z,6.17
2018-01-17T02:19:09.740Z,6.15
2018-01-17T02:19:33.457Z,6.14
2018-01-17T02:19:57.198Z,6.12
2018-01-17T02:20:21.226Z,6.11
2018-01-17T02:20:45.225Z,6.10
2018-01-17T02:21:09.231Z,6.09
2018-01-17T02:21:32.979Z,6.07
2018-01-17T02:21:56.697Z,6.06
2018-01-17T02:22:21.076Z,6.05
2018-01-17T02:22:44.516Z,6.04
2018-01-17T02:23:08.308Z,6.03
2018-01-17T02:23:32.126Z,6.02
2018-01-17T02:23:55.888Z,6.01
2018-01-17T02:24:19.904Z,6.00
2018-01-17T02:24:43.910Z,5.98
2018-01-17T02:25:07.923Z,5.96
2018-01-17T02:25:31.684Z,5.95
2018-01-17T02:25:55.408Z,5.93
2018-01-17T02:26:19.200Z,5.92
2018-01-17T02:26:42.924Z,5.91
2018-01-17T02:27:06.672Z,5.89
2018-01-17T02:27:30.711Z,5.89
2018-01-17T02:27:54.759Z,5.88
2018-01-17T02:28:18.488Z,5.87
2018-01-17T02:28:42.473Z,5.86
2018-01-17T02:29:05.959Z,5.85
2018-01-17T02:29:29.689Z,5.85
2018-01-17T02:29:53.468Z,5.84
2018-01-17T02:30:17.505Z,5.84
2018-01-17T02:30:41.444Z,5.83
2018-01-17T02:31:04.733Z,5.81
2018-01-17T02:31:28.491Z,5.80
2018-01-17T02:31:52.290Z,5.79
2018-01-17T02:32:16.353Z,5.77
2018-01-17T02:32:40.112Z,5.77
2018-01-17T02:33:04.033Z,5.76
2018-01-17T02:33:27.812Z,5.76
2018-01-17T02:33:51.561Z,5.75
2018-01-17T02:34:15.360Z,5.75
2018-01-17T02:34:39.101Z,5.74
2018-01-17T02:35:02.564Z,5.73
2018-01-17T02:35:26.307Z,5.73
2018-01-17T02:35:50.056Z,5.73
2018-01-17T02:36:13.837Z,5.72
2018-01-17T02:36:37.287Z,5.72
2018-01-17T02:37:01.012Z,5.72
2018-01-17T02:37:24.786Z,5.71
2018-01-17T02:37:48.812Z,5.71
2018-01-17T02:38:12.828Z,5.70
2018-01-17T02:38:36.610Z,5.70
2018-01-17T02:39:00.065Z,5.69
2018-01-17T02:39:23.362Z,5.69
2018-01-17T02:39:58.247Z,5.68
2018-01-17T02:40:33.145Z,5.67
2018-01-17T02:40:56.873Z,5.66
2018-01-17T02:41:20.660Z,5.65
2018-01-17T02:41:44.541Z,5.64
2018-01-17T02:42:08.012Z,5.64
2018-01-17T02:42:31.822Z,5.64
2018-01-17T02:42:55.623Z,5.64
2018-01-17T02:43:19.389Z,5.64
2018-01-17T02:43:43.399Z,5.64
2018-01-17T02:44:07.409Z,5.64
2018-01-17T02:44:31.179Z,5.64
2018-01-17T02:44:54.635Z,5.64
2018-01-17T02:45:18.428Z,5.64
2018-01-17T02:45:42.197Z,5.65
2018-01-17T02:46:06.246Z,5.65
2018-01-17T02:46:30.018Z,5.65
2018-01-17T02:46:53.513Z,5.66
2018-01-17T02:47:17.250Z,5.66
2018-01-17T02:47:40.972Z,5.66
2018-01-17T02:48:04.974Z,5.66
2018-01-17T02:48:29.030Z,5.67
2018-01-17T02:48:52.469Z,5.67
2018-01-17T02:49:16.209Z,5.67
2018-01-17T02:49:40.036Z,5.68
2018-01-17T02:50:03.432Z,5.69
2018-01-17T02:50:27.168Z,5.68
2018-01-17T02:50:50.932Z,5.69
2018-01-17T02:51:14.710Z,5.70
2018-01-17T02:51:38.753Z,5.70
2018-01-17T02:52:02.188Z,5.70
2018-01-17T02:52:26.052Z,5.71
2018-01-17T02:52:49.777Z,5.71
2018-01-17T02:53:13.518Z,5.72
2018-01-17T02:53:37.574Z,5.72
2018-01-17T02:54:01.592Z,5.73
2018-01-17T02:54:25.347Z,5.74
2018-01-17T02:54:48.824Z,5.74
2018-01-17T02:55:12.592Z,5.75
2018-01-17T02:55:36.333Z,5.75
2018-01-17T02:56:00.356Z,5.74
2018-01-17T02:56:24.386Z,5.76
2018-01-17T02:56:48.125Z,5.76
2018-01-17T02:57:11.878Z,5.75
2018-01-17T02:57:35.622Z,5.75
2018-01-17T02:57:59.368Z,5.75
2018-01-17T02:58:23.120Z,5.75
2018-01-17T02:58:47.145Z,5.74
2018-01-17T02:59:10.974Z,5.74
2018-01-17T02:59:34.620Z,5.73
2018-01-17T02:59:58.424Z,5.73
2018-01-17T03:00:22.164Z,5.73
2018-01-17T03:00:45.980Z,5.73
2018-01-17T03:01:09.992Z,5.73
2018-01-17T03:01:33.440Z,5.72
2018-01-17T03:01:57.192Z,5.72
2018-01-17T03:02:20.926Z,5.71
2018-01-17T03:02:44.654Z,5.71
2018-01-17T03:03:08.378Z,5.70
2018-01-17T03:03:32.104Z,5.70
2018-01-17T03:03:55.864Z,5.70
2018-01-17T03:04:19.607Z,5.68
2018-01-17T03:04:44.219Z,5.67
2018-01-17T03:05:08.004Z,5.67
2018-01-17T03:05:31.786Z,5.66
2018-01-17T03:05:55.517Z,5.65
2018-01-17T03:06:19.528Z,5.64
2018-01-17T03:06:43.546Z,5.63
2018-01-17T03:07:07.301Z,5.62
2018-01-17T03:07:31.030Z,5.61
2018-01-17T03:07:54.760Z,5.61
2018-01-17T03:08:18.511Z,5.60
2018-01-17T03:08:42.268Z,5.59
2018-01-17T03:09:05.022Z,5.59
2018-01-17T03:09:28.776Z,5.57
2018-01-17T03:09:52.538Z,5.56
2018-01-17T03:10:16.320Z,5.55
2018-01-17T03:10:40.104Z,5.55
2018-01-17T03:11:04.114Z,5.53
2018-01-17T03:11:28.123Z,5.53
2018-01-17T03:11:52.124Z,5.52
2018-01-17T03:12:15.577Z,5.51
2018-01-17T03:12:39.332Z,5.49
2018-01-17T03:13:03.076Z,5.49
2018-01-17T03:13:26.907Z,5.48
2018-01-17T03:13:50.931Z,5.47
2018-01-17T03:14:14.938Z,5.46
2018-01-17T03:14:38.372Z,5.45
2018-01-17T03:15:02.125Z,5.45
2018-01-17T03:15:25.861Z,5.44
2018-01-17T03:15:49.627Z,5.44
2018-01-17T03:16:13.064Z,5.44
2018-01-17T03:16:36.793Z,5.43
2018-01-17T03:17:00.556Z,5.43
2018-01-17T03:17:23.995Z,5.42
2018-01-17T03:17:48.485Z,5.42
2018-01-17T03:18:11.960Z,5.41
2018-01-17T03:18:35.701Z,5.41
2018-01-17T03:18:59.432Z,5.41
2018-01-17T03:19:23.459Z,5.41
2018-01-17T03:19:47.492Z,5.40
2018-01-17T03:20:11.225Z,5.40
2018-01-17T03:20:35.056Z,5.40
2018-01-17T03:20:58.492Z,5.40
2018-01-17T03:21:22.251Z,5.40
2018-01-17T03:21:46.305Z,5.39
2018-01-17T03:22:10.060Z,5.39
2018-01-17T03:22:33.523Z,5.39
2018-01-17T03:22:57.266Z,5.38
2018-01-17T03:23:21.035Z,5.38
2018-01-17T03:23:45.069Z,5.37
2018-01-17T03:24:09.080Z,5.37
2018-01-17T03:24:33.122Z,5.37
2018-01-17T03:24:56.551Z,5.36
2018-01-17T03:25:20.293Z,5.36
2018-01-17T03:25:44.073Z,5.36
2018-01-17T03:26:07.809Z,5.36
2018-01-17T03:26:31.832Z,5.36
2018-01-17T03:26:55.900Z,5.36
2018-01-17T03:27:19.719Z,5.36
2018-01-17T03:27:43.169Z,5.35
2018-01-17T03:28:06.934Z,5.36
2018-01-17T03:28:30.688Z,5.35
2018-01-17T03:28:54.774Z,5.36
2018-01-17T03:29:18.558Z,5.36
2018-01-17T03:29:42.572Z,5.36
2018-01-17T03:30:06.591Z,5.36
2018-01-17T03:30:30.035Z,5.37
2018-01-17T03:30:53.824Z,5.37
2018-01-17T03:31:17.549Z,5.37
2018-01-17T03:31:41.342Z,5.36
2018-01-17T03:32:05.357Z,5.35
2018-01-17T03:32:29.401Z,5.35
2018-01-17T03:32:52.848Z,5.34
2018-01-17T03:33:16.596Z,5.34
2018-01-17T03:33:40.308Z,5.33
2018-01-17T03:34:03.807Z,5.32
2018-01-17T03:34:27.559Z,5.32
2018-01-17T03:34:51.732Z,5.31
2018-01-17T03:35:15.503Z,5.31
2018-01-17T03:35:39.225Z,5.30
2018-01-17T03:36:03.010Z,5.29
2018-01-17T03:36:27.034Z,5.28
2018-01-17T03:36:51.888Z,5.28
2018-01-17T03:37:15.350Z,5.27
2018-01-17T03:37:39.131Z,5.26
2018-01-17T03:38:03.016Z,5.25
2018-01-17T03:38:26.785Z,5.24
2018-01-17T03:38:50.887Z,5.23
2018-01-17T03:39:14.625Z,5.22
2018-01-17T03:39:38.099Z,5.22
2018-01-17T03:40:01.843Z,5.21
2018-01-17T03:40:25.599Z,5.20
2018-01-17T03:40:49.608Z,5.19
2018-01-17T03:41:13.669Z,5.19
2018-01-17T03:41:37.435Z,5.18
2018-01-17T03:42:00.872Z,5.18
2018-01-17T03:42:24.822Z,5.17
2018-01-17T03:42:48.557Z,5.16
2018-01-17T03:43:12.286Z,5.15
2018-01-17T03:43:36.060Z,5.14
2018-01-17T03:43:59.800Z,5.14
2018-01-17T03:44:23.520Z,5.13
2018-01-17T03:44:47.283Z,5.13
2018-01-17T03:45:11.327Z,5.12
2018-01-17T03:45:35.083Z,5.13
2018-01-17T03:45:58.517Z,5.12
2018-01-17T03:46:22.270Z,5.12
2018-01-17T03:46:46.004Z,5.13
2018-01-17T03:47:09.464Z,5.12
2018-01-17T03:47:33.208Z,5.11
2018-01-17T03:47:56.965Z,5.11
2018-01-17T03:48:21.036Z,5.11
2018-01-17T03:48:44.474Z,5.10
2018-01-17T03:49:08.223Z,5.10
2018-01-17T03:49:32.133Z,5.10
2018-01-17T03:49:55.930Z,5.10
2018-01-17T03:50:19.663Z,5.10
2018-01-17T03:50:43.132Z,5.11
2018-01-17T03:51:06.902Z,5.11
2018-01-17T03:51:30.670Z,5.11
2018-01-17T03:51:54.686Z,5.12
2018-01-17T03:52:18.692Z,5.11
2018-01-17T03:52:42.429Z,5.11
2018-01-17T03:53:05.952Z,5.12
2018-01-17T03:53:29.520Z,5.12
2018-01-17T03:53:53.346Z,5.12
2018-01-17T03:54:16.605Z,5.13
2018-01-17T03:54:40.144Z,5.13
2018-01-17T03:55:03.868Z,5.13
2018-01-17T03:55:27.645Z,5.14
2018-01-17T03:55:51.389Z,5.14
2018-01-17T03:56:15.135Z,5.14
2018-01-17T03:56:38.428Z,5.14
2018-01-17T03:57:02.185Z,5.14
2018-01-17T03:57:26.184Z,5.14
2018-01-17T03:57:50.201Z,5.14
2018-01-17T03:58:13.948Z,5.14
2018-01-17T03:58:37.388Z,5.14
2018-01-17T03:59:01.119Z,5.13
2018-01-17T03:59:24.879Z,5.14
2018-01-17T03:59:48.905Z,5.14
2018-01-17T04:00:12.961Z,5.15
2018-01-17T04:00:36.393Z,5.14
2018-01-17T04:01:00.129Z,5.15
2018-01-17T04:01:23.907Z,5.15
2018-01-17T04:01:47.667Z,5.15
2018-01-17T04:02:10.774Z,5.15
2018-01-17T04:02:34.815Z,5.16
2018-01-17T04:02:58.572Z,5.16
2018-01-17T04:03:22.592Z,5.17
2018-01-17T04:03:46.691Z,5.17
2018-01-17T04:04:10.436Z,5.17
2018-01-17T04:04:33.883Z,5.18
2018-01-17T04:04:57.625Z,5.18
2018-01-17T04:05:21.359Z,5.18
2018-01-17T04:05:44.796Z,5.19
2018-01-17T04:06:08.538Z,5.20
2018-01-17T04:06:32.272Z,5.20
2018-01-17T04:06:56.375Z,5.20
2018-01-17T04:07:19.900Z,5.21
2018-01-17T04:07:43.674Z,5.21
2018-01-17T04:08:07.424Z,5.22
2018-01-17T04:08:31.169Z,5.22
2018-01-17T04:08:55.171Z,5.22
2018-01-17T04:09:19.174Z,5.23
2018-01-17T04:09:42.828Z,5.23
2018-01-17T04:10:06.616Z,5.23
2018-01-17T04:10:30.364Z,5.24
2018-01-17T04:10:54.147Z,5.24
2018-01-17T04:11:17.885Z,5.25
2018-01-17T04:11:41.359Z,5.25
2018-01-17T04:12:05.120Z,5.25
2018-01-17T04:12:28.870Z,5.26
2018-01-17T04:12:52.885Z,5.27
2018-01-17T04:13:16.896Z,5.27
2018-01-17T04:13:40.638Z,5.27
2018-01-17T04:14:04.087Z,5.27
2018-01-17T04:14:27.833Z,5.28
2018-01-17T04:14:51.563Z,5.28
2018-01-17T04:15:15.035Z,5.28
2018-01-17T04:15:38.444Z,5.28
2018-01-17T04:16:02.173Z,5.28
2018-01-17T04:16:25.983Z,5.28
2018-01-17T04:16:49.720Z,5.27
2018-01-17T04:17:13.525Z,5.26
2018-01-17T04:17:36.966Z,5.26
2018-01-17T04:18:00.716Z,5.25
2018-01-17T04:18:24.435Z,5.25
2018-01-17T04:18:47.876Z,5.25
2018-01-17T04:19:11.605Z,5.24
2018-01-17T04:19:35.337Z,5.24
2018-01-17T04:19:58.818Z,5.24
2018-01-17T04:20:22.628Z,5.24
2018-01-17T04:20:46.403Z,5.24
2018-01-17T04:21:10.131Z,5.24
2018-01-17T04:21:34.148Z,5.23
2018-01-17T04:21:58.175Z,5.22
2018-01-17T04:22:21.954Z,5.22
2018-01-17T04:22:45.389Z,5.22
2018-01-17T04:23:09.128Z,5.21
2018-01-17T04:23:33.700Z,5.21
2018-01-17T04:23:56.968Z,5.20
2018-01-17T04:24:20.990Z,5.20
2018-01-17T04:24:46.559Z,5.19
2018-01-17T04:25:09.648Z,5.18
2018-01-17T04:25:33.404Z,5.18
2018-01-17T04:25:57.188Z,5.18
2018-01-17T04:26:20.920Z,5.17
2018-01-17T04:26:44.667Z,5.17
2018-01-17T04:27:08.702Z,5.16
2018-01-17T04:27:32.189Z,5.16
2018-01-17T04:27:55.920Z,5.16
2018-01-17T04:28:19.673Z,5.15
2018-01-17T04:28:43.257Z,5.15
2018-01-17T04:29:06.995Z,5.14
2018-01-17T04:29:30.755Z,5.14
2018-01-17T04:29:54.507Z,5.14
2018-01-17T04:30:18.244Z,5.13
2018-01-17T04:30:41.775Z,5.12
2018-01-17T04:31:05.548Z,5.11
2018-01-17T04:31:29.270Z,5.11
2018-01-17T04:31:53.004Z,5.10
2018-01-17T04:32:16.743Z,5.09
2018-01-17T04:32:40.646Z,5.09
2018-01-17T04:33:04.413Z,5.08
2018-01-17T04:33:28.161Z,5.07
2018-01-17T04:33:51.936Z,5.07
2018-01-17T04:34:15.984Z,5.07
2018-01-17T04:34:39.921Z,5.06
2018-01-17T04:35:03.683Z,5.06
2018-01-17T04:35:27.887Z,5.06
2018-01-17T04:35:51.652Z,5.05
2018-01-17T04:36:15.112Z,5.05
2018-01-17T04:36:38.885Z,5.05
2018-01-17T04:37:02.695Z,5.05
2018-01-17T04:37:26.256Z,5.04
2018-01-17T04:37:50.011Z,5.04
2018-01-17T04:38:13.753Z,5.04
2018-01-17T04:38:37.480Z,5.04
2018-01-17T04:39:01.508Z,5.04
2018-01-17T04:39:24.961Z,5.03
2018-01-17T04:39:48.709Z,5.04
2018-01-17T04:40:12.457Z,5.04
2018-01-17T04:40:36.398Z,5.04
2018-01-17T04:41:00.193Z,5.04
2018-01-17T04:41:23.638Z,5.04
2018-01-17T04:41:47.536Z,5.04
2018-01-17T04:42:11.296Z,5.04
2018-01-17T04:42:35.074Z,5.04
2018-01-17T04:42:59.139Z,5.03
2018-01-17T04:43:23.171Z,5.02
2018-01-17T04:43:46.974Z,5.01
2018-01-17T04:44:11.047Z,5.01
2018-01-17T04:44:35.056Z,5.00
2018-01-17T04:44:58.508Z,5.00
2018-01-17T04:45:22.232Z,4.99
2018-01-17T04:45:45.974Z,4.99
2018-01-17T04:46:09.724Z,4.99
2018-01-17T04:46:33.444Z,4.99
2018-01-17T04:46:57.220Z,4.99
2018-01-17T04:47:20.976Z,4.99
2018-01-17T04:47:44.704Z,4.99
2018-01-17T04:48:08.763Z,4.99
2018-01-17T04:48:32.520Z,4.99
2018-01-17T04:48:56.021Z,4.99
2018-01-17T04:49:19.833Z,4.98
2018-01-17T04:49:43.636Z,4.98
2018-01-17T04:50:07.396Z,4.98
2018-01-17T04:50:31.315Z,4.99
2018-01-17T04:50:55.034Z,4.99
2018-01-17T04:51:18.838Z,4.99
2018-01-17T04:51:42.581Z,4.98
2018-01-17T04:52:06.506Z,4.98
2018-01-17T04:52:30.290Z,4.98
2018-01-17T04:52:54.389Z,4.97
2018-01-17T04:53:18.231Z,4.97
2018-01-17T04:53:42.354Z,4.97
2018-01-17T04:54:06.095Z,4.97
2018-01-17T04:54:30.112Z,4.97
2018-01-17T04:54:53.781Z,4.96
2018-01-17T04:55:17.571Z,4.94
2018-01-17T04:55:41.301Z,4.94
2018-01-17T04:56:05.026Z,4.93
2018-01-17T04:56:28.809Z,4.93
2018-01-17T04:56:52.233Z,4.92
2018-01-17T04:57:15.971Z,4.92
2018-01-17T04:57:39.745Z,4.91
2018-01-17T04:58:03.794Z,4.91
2018-01-17T04:58:27.851Z,4.90
2018-01-17T04:58:51.609Z,4.90
2018-01-17T04:59:15.708Z,4.89
2018-01-17T04:59:39.716Z,4.89
2018-01-17T05:00:03.456Z,4.88
2018-01-17T05:00:27.206Z,4.88
2018-01-17T05:00:50.923Z,4.88
2018-01-17T05:01:14.645Z,4.88
2018-01-17T05:01:38.375Z,4.88
2018-01-17T05:02:02.386Z,4.87
2018-01-17T05:02:26.418Z,4.86
2018-01-17T05:02:49.878Z,4.86
2018-01-17T05:03:13.597Z,4.86
2018-01-17T05:03:37.366Z,4.85
2018-01-17T05:04:01.148Z,4.84
2018-01-17T05:04:25.187Z,4.84
2018-01-17T05:04:49.275Z,4.83
2018-01-17T05:05:12.892Z,4.83
2018-01-17T05:05:36.727Z,4.82
2018-01-17T05:06:00.507Z,4.82
2018-01-17T05:06:24.381Z,4.81
2018-01-17T05:06:48.104Z,4.81
2018-01-17T05:07:11.835Z,4.80
2018-01-17T05:07:35.846Z,4.79
2018-01-17T05:07:59.841Z,4.79
2018-01-17T05:08:24.539Z,4.79
2018-01-17T05:08:48.305Z,4.78
2018-01-17T05:09:12.045Z,4.78
2018-01-17T05:09:35.764Z,4.77
2018-01-17T05:09:59.137Z,4.77
2018-01-17T05:10:22.876Z,4.76
2018-01-17T05:10:46.696Z,4.76
2018-01-17T05:11:10.506Z,4.76
2018-01-17T05:11:33.968Z,4.75
2018-01-17T05:11:57.695Z,4.74
2018-01-17T05:12:21.471Z,4.74
2018-01-17T05:12:45.215Z,4.73
2018-01-17T05:13:09.051Z,4.73
2018-01-17T05:13:32.782Z,4.73
2018-01-17T05:13:56.584Z,4.73
2018-01-17T05:14:20.309Z,4.73
2018-01-17T05:14:44.119Z,4.72
2018-01-17T05:15:08.506Z,4.72
2018-01-17T05:15:32.285Z,4.71
2018-01-17T05:15:56.235Z,4.71
2018-01-17T05:16:19.996Z,4.71
2018-01-17T05:16:43.739Z,4.70
2018-01-17T05:17:07.787Z,4.69